sensor_id;sensor_type;location;lat;lon;timestamp;temperature;humidity
66722;SHT31;53633;49.932;10.884;2023-05-02T00:00:27;6.85;95.21
66722;SHT31;53633;49.932;10.884;2023-05-02T00:02:53;6.89;95.32
66722;SHT31;53633;49.932;10.884;2023-05-02T00:05:20;6.82;95.48
66722;SHT31;53633;49.932;10.884;2023-05-02T00:07:47;6.79;95.26
66722;SHT31;53633;49.932;10.884;2023-05-02T00:10:14;6.82;95.16
66722;SHT31;53633;49.932;10.884;2023-05-02T00:12:41;6.79;95.86
66722;SHT31;53633;49.932;10.884;2023-05-02T00:15:08;6.73;95.40
66722;SHT31;53633;49.932;10.884;2023-05-02T00:17:38;6.75;95.21
66722;SHT31;53633;49.932;10.884;2023-05-02T00:20:06;6.71;95.30
66722;SHT31;53633;49.932;10.884;2023-05-02T00:22:33;6.67;95.70
66722;SHT31;53633;49.932;10.884;2023-05-02T00:24:59;6.56;95.94
66722;SHT31;53633;49.932;10.884;2023-05-02T00:27:26;6.41;96.07
66722;SHT31;53633;49.932;10.884;2023-05-02T00:29:53;6.41;96.44
66722;SHT31;53633;49.932;10.884;2023-05-02T00:32:19;6.42;96.08
66722;SHT31;53633;49.932;10.884;2023-05-02T00:34:47;6.45;95.86
66722;SHT31;53633;49.932;10.884;2023-05-02T00:37:14;6.48;95.65
66722;SHT31;53633;49.932;10.884;2023-05-02T00:39:41;6.46;95.82
66722;SHT31;53633;49.932;10.884;2023-05-02T00:42:07;6.42;95.63
66722;SHT31;53633;49.932;10.884;2023-05-02T00:44:34;6.37;96.05
66722;SHT31;53633;49.932;10.884;2023-05-02T00:47:01;6.42;96.07
66722;SHT31;53633;49.932;10.884;2023-05-02T00:49:28;6.68;95.89
66722;SHT31;53633;49.932;10.884;2023-05-02T00:51:57;6.54;95.87
66722;SHT31;53633;49.932;10.884;2023-05-02T00:54:24;6.54;95.52
66722;SHT31;53633;49.932;10.884;2023-05-02T00:56:50;6.45;95.39
66722;SHT31;53633;49.932;10.884;2023-05-02T00:59:17;6.38;95.13
66722;SHT31;53633;49.932;10.884;2023-05-02T01:01:52;6.34;95.43
66722;SHT31;53633;49.932;10.884;2023-05-02T01:04:25;6.38;95.59
66722;SHT31;53633;49.932;10.884;2023-05-02T01:07:05;6.49;95.47
66722;SHT31;53633;49.932;10.884;2023-05-02T01:09:40;6.78;94.48
66722;SHT31;53633;49.932;10.884;2023-05-02T01:12:15;6.73;94.41
66722;SHT31;53633;49.932;10.884;2023-05-02T01:14:46;6.72;93.21
66722;SHT31;53633;49.932;10.884;2023-05-02T01:17:15;6.61;94.52
66722;SHT31;53633;49.932;10.884;2023-05-02T01:19:47;6.48;94.87
66722;SHT31;53633;49.932;10.884;2023-05-02T01:22:17;6.38;95.26
66722;SHT31;53633;49.932;10.884;2023-05-02T01:24:52;6.33;95.53
66722;SHT31;53633;49.932;10.884;2023-05-02T01:27:27;6.64;95.26
66722;SHT31;53633;49.932;10.884;2023-05-02T01:29:59;6.62;94.72
66722;SHT31;53633;49.932;10.884;2023-05-02T01:32:28;6.55;94.46
66722;SHT31;53633;49.932;10.884;2023-05-02T01:34:57;6.45;94.63
66722;SHT31;53633;49.932;10.884;2023-05-02T01:37:26;6.41;94.23
66722;SHT31;53633;49.932;10.884;2023-05-02T01:39:54;6.25;95.21
66722;SHT31;53633;49.932;10.884;2023-05-02T01:42:22;6.23;95.24
66722;SHT31;53633;49.932;10.884;2023-05-02T01:44:50;6.33;95.63
66722;SHT31;53633;49.932;10.884;2023-05-02T01:47:21;6.40;95.06
66722;SHT31;53633;49.932;10.884;2023-05-02T01:49:49;6.28;95.09
66722;SHT31;53633;49.932;10.884;2023-05-02T01:52:18;6.25;94.94
66722;SHT31;53633;49.932;10.884;2023-05-02T01:54:47;6.41;94.88
66722;SHT31;53633;49.932;10.884;2023-05-02T01:57:17;6.44;93.66
66722;SHT31;53633;49.932;10.884;2023-05-02T01:59:45;6.49;93.62
66722;SHT31;53633;49.932;10.884;2023-05-02T02:02:13;6.23;94.68
66722;SHT31;53633;49.932;10.884;2023-05-02T02:04:42;6.07;95.22
66722;SHT31;53633;49.932;10.884;2023-05-02T02:07:12;6.00;94.84
66722;SHT31;53633;49.932;10.884;2023-05-02T02:09:40;6.04;94.86
66722;SHT31;53633;49.932;10.884;2023-05-02T02:12:11;5.85;95.45
66722;SHT31;53633;49.932;10.884;2023-05-02T02:14:39;5.75;95.38
66722;SHT31;53633;49.932;10.884;2023-05-02T02:17:14;5.83;95.57
66722;SHT31;53633;49.932;10.884;2023-05-02T02:19:43;5.78;95.78
66722;SHT31;53633;49.932;10.884;2023-05-02T02:22:12;5.82;95.39
66722;SHT31;53633;49.932;10.884;2023-05-02T02:24:40;5.85;95.20
66722;SHT31;53633;49.932;10.884;2023-05-02T02:27:09;5.86;94.94
66722;SHT31;53633;49.932;10.884;2023-05-02T02:29:35;5.99;94.80
66722;SHT31;53633;49.932;10.884;2023-05-02T02:32:02;5.86;94.18
66722;SHT31;53633;49.932;10.884;2023-05-02T02:34:28;5.79;94.35
66722;SHT31;53633;49.932;10.884;2023-05-02T02:37:00;5.80;94.16
66722;SHT31;53633;49.932;10.884;2023-05-02T02:39:38;5.79;94.40
66722;SHT31;53633;49.932;10.884;2023-05-02T02:42:10;5.80;94.66
66722;SHT31;53633;49.932;10.884;2023-05-02T02:44:45;5.78;94.91
66722;SHT31;53633;49.932;10.884;2023-05-02T02:47:24;5.80;94.96
66722;SHT31;53633;49.932;10.884;2023-05-02T02:50:01;5.85;95.31
66722;SHT31;53633;49.932;10.884;2023-05-02T02:52:39;6.13;94.95
66722;SHT31;53633;49.932;10.884;2023-05-02T02:55:22;6.35;94.08
66722;SHT31;53633;49.932;10.884;2023-05-02T02:57:55;6.51;93.54
66722;SHT31;53633;49.932;10.884;2023-05-02T03:00:25;6.62;92.61
66722;SHT31;53633;49.932;10.884;2023-05-02T03:02:53;6.69;92.60
66722;SHT31;53633;49.932;10.884;2023-05-02T03:05:21;6.61;92.65
66722;SHT31;53633;49.932;10.884;2023-05-02T03:07:50;6.38;92.95
66722;SHT31;53633;49.932;10.884;2023-05-02T03:10:17;6.40;93.03
66722;SHT31;53633;49.932;10.884;2023-05-02T03:16:11;6.54;92.77
66722;SHT31;53633;49.932;10.884;2023-05-02T03:18:41;6.46;93.35
66722;SHT31;53633;49.932;10.884;2023-05-02T03:21:08;6.41;93.51
66722;SHT31;53633;49.932;10.884;2023-05-02T03:23:36;6.52;93.50
66722;SHT31;53633;49.932;10.884;2023-05-02T03:26:03;6.45;93.75
66722;SHT31;53633;49.932;10.884;2023-05-02T03:28:29;6.51;94.05
66722;SHT31;53633;49.932;10.884;2023-05-02T03:30:56;6.40;94.33
66722;SHT31;53633;49.932;10.884;2023-05-02T03:33:23;6.24;95.02
66722;SHT31;53633;49.932;10.884;2023-05-02T03:35:49;6.23;95.25
66722;SHT31;53633;49.932;10.884;2023-05-02T03:38:16;6.34;95.28
66722;SHT31;53633;49.932;10.884;2023-05-02T03:40:44;6.25;95.58
66722;SHT31;53633;49.932;10.884;2023-05-02T03:43:10;6.20;95.89
66722;SHT31;53633;49.932;10.884;2023-05-02T03:45:37;6.24;95.88
66722;SHT31;53633;49.932;10.884;2023-05-02T03:48:03;6.46;95.46
66722;SHT31;53633;49.932;10.884;2023-05-02T03:50:30;6.59;95.06
66722;SHT31;53633;49.932;10.884;2023-05-02T03:52:57;6.67;94.94
66722;SHT31;53633;49.932;10.884;2023-05-02T03:55:23;6.58;95.20
66722;SHT31;53633;49.932;10.884;2023-05-02T03:57:51;6.62;95.24
66722;SHT31;53633;49.932;10.884;2023-05-02T04:00:19;6.59;95.14
66722;SHT31;53633;49.932;10.884;2023-05-02T04:02:45;6.59;95.20
66722;SHT31;53633;49.932;10.884;2023-05-02T04:05:12;6.54;95.37
66722;SHT31;53633;49.932;10.884;2023-05-02T04:07:39;6.54;95.72
66722;SHT31;53633;49.932;10.884;2023-05-02T04:10:06;6.52;95.50
66722;SHT31;53633;49.932;10.884;2023-05-02T04:12:33;6.55;95.47
66722;SHT31;53633;49.932;10.884;2023-05-02T04:15:01;6.58;95.58
66722;SHT31;53633;49.932;10.884;2023-05-02T04:17:27;6.82;94.90
66722;SHT31;53633;49.932;10.884;2023-05-02T04:19:54;6.89;94.72
66722;SHT31;53633;49.932;10.884;2023-05-02T04:22:21;6.96;94.69
66722;SHT31;53633;49.932;10.884;2023-05-02T04:24:47;7.03;94.52
66722;SHT31;53633;49.932;10.884;2023-05-02T04:27:14;7.06;94.42
66722;SHT31;53633;49.932;10.884;2023-05-02T04:29:41;7.10;94.29
66722;SHT31;53633;49.932;10.884;2023-05-02T04:32:09;7.23;93.98
66722;SHT31;53633;49.932;10.884;2023-05-02T04:34:35;7.30;94.06
66722;SHT31;53633;49.932;10.884;2023-05-02T04:37:02;7.28;94.09
66722;SHT31;53633;49.932;10.884;2023-05-02T04:39:28;7.27;93.99
66722;SHT31;53633;49.932;10.884;2023-05-02T04:41:55;7.19;94.45
66722;SHT31;53633;49.932;10.884;2023-05-02T04:44:22;7.16;94.61
66722;SHT31;53633;49.932;10.884;2023-05-02T04:46:48;7.26;94.46
66722;SHT31;53633;49.932;10.884;2023-05-02T04:49:17;7.28;94.19
66722;SHT31;53633;49.932;10.884;2023-05-02T04:51:44;7.10;95.00
66722;SHT31;53633;49.932;10.884;2023-05-02T04:54:11;7.14;95.09
66722;SHT31;53633;49.932;10.884;2023-05-02T04:56:37;7.28;94.70
66722;SHT31;53633;49.932;10.884;2023-05-02T04:59:04;7.28;94.84
66722;SHT31;53633;49.932;10.884;2023-05-02T05:01:31;7.28;95.10
66722;SHT31;53633;49.932;10.884;2023-05-02T05:03:58;7.20;95.69
66722;SHT31;53633;49.932;10.884;2023-05-02T05:06:26;7.11;95.73
66722;SHT31;53633;49.932;10.884;2023-05-02T05:08:53;7.30;95.52
66722;SHT31;53633;49.932;10.884;2023-05-02T05:11:19;7.55;94.77
66722;SHT31;53633;49.932;10.884;2023-05-02T05:13:46;7.21;95.04
66722;SHT31;53633;49.932;10.884;2023-05-02T05:16:13;7.20;95.53
66722;SHT31;53633;49.932;10.884;2023-05-02T05:18:39;7.40;94.96
66722;SHT31;53633;49.932;10.884;2023-05-02T05:21:06;7.55;94.58
66722;SHT31;53633;49.932;10.884;2023-05-02T05:23:35;7.48;94.63
66722;SHT31;53633;49.932;10.884;2023-05-02T05:26:08;7.45;94.72
66722;SHT31;53633;49.932;10.884;2023-05-02T05:28:35;7.54;94.61
66722;SHT31;53633;49.932;10.884;2023-05-02T05:31:04;7.58;94.50
66722;SHT31;53633;49.932;10.884;2023-05-02T05:33:31;7.57;94.82
66722;SHT31;53633;49.932;10.884;2023-05-02T05:36:02;7.62;94.63
66722;SHT31;53633;49.932;10.884;2023-05-02T05:38:29;7.51;94.81
66722;SHT31;53633;49.932;10.884;2023-05-02T05:40:57;7.66;94.59
66722;SHT31;53633;49.932;10.884;2023-05-02T05:43:24;7.83;94.39
66722;SHT31;53633;49.932;10.884;2023-05-02T05:45:50;7.90;94.00
66722;SHT31;53633;49.932;10.884;2023-05-02T05:48:17;7.96;93.72
66722;SHT31;53633;49.932;10.884;2023-05-02T05:50:44;7.93;93.48
66722;SHT31;53633;49.932;10.884;2023-05-02T05:53:11;8.14;93.39
66722;SHT31;53633;49.932;10.884;2023-05-02T05:55:37;8.42;91.98
66722;SHT31;53633;49.932;10.884;2023-05-02T05:58:09;8.58;91.12
66722;SHT31;53633;49.932;10.884;2023-05-02T06:00:36;8.57;91.36
66722;SHT31;53633;49.932;10.884;2023-05-02T06:03:04;8.73;90.75
66722;SHT31;53633;49.932;10.884;2023-05-02T06:05:34;8.85;89.92
66722;SHT31;53633;49.932;10.884;2023-05-02T06:08:01;8.86;89.90
66722;SHT31;53633;49.932;10.884;2023-05-02T06:10:29;8.88;89.99
66722;SHT31;53633;49.932;10.884;2023-05-02T06:12:56;8.86;90.28
66722;SHT31;53633;49.932;10.884;2023-05-02T06:15:24;8.82;90.78
66722;SHT31;53633;49.932;10.884;2023-05-02T06:17:51;8.93;89.94
66722;SHT31;53633;49.932;10.884;2023-05-02T06:20:18;9.05;89.41
66722;SHT31;53633;49.932;10.884;2023-05-02T06:22:45;8.93;90.35
66722;SHT31;53633;49.932;10.884;2023-05-02T06:25:11;8.92;90.67
66722;SHT31;53633;49.932;10.884;2023-05-02T06:27:38;8.99;90.28
66722;SHT31;53633;49.932;10.884;2023-05-02T06:30:06;9.02;90.68
66722;SHT31;53633;49.932;10.884;2023-05-02T06:32:34;9.03;90.84
66722;SHT31;53633;49.932;10.884;2023-05-02T06:35:01;9.24;90.42
66722;SHT31;53633;49.932;10.884;2023-05-02T06:37:32;9.33;90.68
66722;SHT31;53633;49.932;10.884;2023-05-02T06:39:59;9.57;90.47
66722;SHT31;53633;49.932;10.884;2023-05-02T06:42:26;9.75;89.74
66722;SHT31;53633;49.932;10.884;2023-05-02T06:44:52;9.74;89.28
66722;SHT31;53633;49.932;10.884;2023-05-02T06:47:19;10.03;88.24
66722;SHT31;53633;49.932;10.884;2023-05-02T06:49:47;9.88;88.77
66722;SHT31;53633;49.932;10.884;2023-05-02T06:52:14;9.98;88.31
66722;SHT31;53633;49.932;10.884;2023-05-02T06:54:41;9.85;88.71
66722;SHT31;53633;49.932;10.884;2023-05-02T06:57:08;9.99;88.38
66722;SHT31;53633;49.932;10.884;2023-05-02T06:59:34;10.26;87.62
66722;SHT31;53633;49.932;10.884;2023-05-02T07:02:01;10.20;87.43
66722;SHT31;53633;49.932;10.884;2023-05-02T07:04:31;10.37;87.06
66722;SHT31;53633;49.932;10.884;2023-05-02T07:06:59;10.46;86.48
66722;SHT31;53633;49.932;10.884;2023-05-02T07:09:25;10.24;87.31
66722;SHT31;53633;49.932;10.884;2023-05-02T07:11:52;10.41;89.20
66722;SHT31;53633;49.932;10.884;2023-05-02T07:14:19;10.23;89.18
66722;SHT31;53633;49.932;10.884;2023-05-02T07:16:45;10.30;89.37
66722;SHT31;53633;49.932;10.884;2023-05-02T07:19:12;10.51;88.96
66722;SHT31;53633;49.932;10.884;2023-05-02T07:21:39;10.60;87.64
66722;SHT31;53633;49.932;10.884;2023-05-02T07:24:07;10.92;86.92
66722;SHT31;53633;49.932;10.884;2023-05-02T07:26:33;11.12;87.33
66722;SHT31;53633;49.932;10.884;2023-05-02T07:29:00;11.15;86.53
66722;SHT31;53633;49.932;10.884;2023-05-02T07:31:27;11.63;84.78
66722;SHT31;53633;49.932;10.884;2023-05-02T07:33:53;12.43;83.24
66722;SHT31;53633;49.932;10.884;2023-05-02T07:36:20;12.84;82.07
66722;SHT31;53633;49.932;10.884;2023-05-02T07:38:46;13.55;79.52
66722;SHT31;53633;49.932;10.884;2023-05-02T07:41:14;14.34;77.68
66722;SHT31;53633;49.932;10.884;2023-05-02T07:43:41;14.65;75.34
66722;SHT31;53633;49.932;10.884;2023-05-02T07:46:08;16.18;68.62
66722;SHT31;53633;49.932;10.884;2023-05-02T07:48:35;16.92;66.96
66722;SHT31;53633;49.932;10.884;2023-05-02T07:51:05;16.59;66.23
66722;SHT31;53633;49.932;10.884;2023-05-02T07:53:32;16.89;66.54
66722;SHT31;53633;49.932;10.884;2023-05-02T07:55:58;17.40;64.79
66722;SHT31;53633;49.932;10.884;2023-05-02T07:58:26;17.20;64.93
66722;SHT31;53633;49.932;10.884;2023-05-02T08:00:53;17.54;63.30
66722;SHT31;53633;49.932;10.884;2023-05-02T08:03:20;17.41;62.57
66722;SHT31;53633;49.932;10.884;2023-05-02T08:05:47;16.83;63.96
66722;SHT31;53633;49.932;10.884;2023-05-02T08:08:13;16.28;66.23
66722;SHT31;53633;49.932;10.884;2023-05-02T08:10:40;15.59;68.89
66722;SHT31;53633;49.932;10.884;2023-05-02T08:13:07;15.03;68.87
66722;SHT31;53633;49.932;10.884;2023-05-02T08:15:35;15.92;67.99
66722;SHT31;53633;49.932;10.884;2023-05-02T08:18:02;16.06;66.93
66722;SHT31;53633;49.932;10.884;2023-05-02T08:20:28;16.72;66.46
66722;SHT31;53633;49.932;10.884;2023-05-02T08:22:55;17.28;65.31
66722;SHT31;53633;49.932;10.884;2023-05-02T08:25:25;17.07;64.47
66722;SHT31;53633;49.932;10.884;2023-05-02T08:27:51;17.28;61.53
66722;SHT31;53633;49.932;10.884;2023-05-02T08:30:18;17.61;63.92
66722;SHT31;53633;49.932;10.884;2023-05-02T08:32:46;18.68;60.23
66722;SHT31;53633;49.932;10.884;2023-05-02T08:35:13;19.36;58.20
66722;SHT31;53633;49.932;10.884;2023-05-02T08:37:39;19.70;56.02
66722;SHT31;53633;49.932;10.884;2023-05-02T08:40:10;19.77;57.16
66722;SHT31;53633;49.932;10.884;2023-05-02T08:42:40;19.92;57.60
66722;SHT31;53633;49.932;10.884;2023-05-02T08:45:08;19.54;56.41
66722;SHT31;53633;49.932;10.884;2023-05-02T08:47:35;19.45;56.28
66722;SHT31;53633;49.932;10.884;2023-05-02T08:50:07;19.89;57.37
66722;SHT31;53633;49.932;10.884;2023-05-02T08:52:34;20.44;54.25
66722;SHT31;53633;49.932;10.884;2023-05-02T08:55:02;21.07;53.75
66722;SHT31;53633;49.932;10.884;2023-05-02T08:57:29;19.53;55.13
66722;SHT31;53633;49.932;10.884;2023-05-02T08:59:56;20.33;54.83
66722;SHT31;53633;49.932;10.884;2023-05-02T09:02:38;20.73;53.29
66722;SHT31;53633;49.932;10.884;2023-05-02T09:05:11;20.83;53.72
66722;SHT31;53633;49.932;10.884;2023-05-02T09:07:43;20.70;54.06
66722;SHT31;53633;49.932;10.884;2023-05-02T09:10:10;20.36;54.10
66722;SHT31;53633;49.932;10.884;2023-05-02T09:12:37;20.19;54.41
66722;SHT31;53633;49.932;10.884;2023-05-02T09:15:11;19.92;57.05
66722;SHT31;53633;49.932;10.884;2023-05-02T09:17:42;20.29;55.13
66722;SHT31;53633;49.932;10.884;2023-05-02T09:20:13;20.53;53.93
66722;SHT31;53633;49.932;10.884;2023-05-02T09:22:47;21.19;53.55
66722;SHT31;53633;49.932;10.884;2023-05-02T09:25:14;21.63;52.19
66722;SHT31;53633;49.932;10.884;2023-05-02T09:27:51;21.73;51.29
66722;SHT31;53633;49.932;10.884;2023-05-02T09:30:20;21.87;50.61
66722;SHT31;53633;49.932;10.884;2023-05-02T09:32:48;22.12;50.34
66722;SHT31;53633;49.932;10.884;2023-05-02T09:35:16;22.48;48.60
66722;SHT31;53633;49.932;10.884;2023-05-02T09:37:43;21.87;49.87
66722;SHT31;53633;49.932;10.884;2023-05-02T09:40:10;22.80;48.12
66722;SHT31;53633;49.932;10.884;2023-05-02T09:42:38;23.08;45.76
66722;SHT31;53633;49.932;10.884;2023-05-02T09:45:06;23.35;44.91
66722;SHT31;53633;49.932;10.884;2023-05-02T09:47:33;22.93;45.50
66722;SHT31;53633;49.932;10.884;2023-05-02T09:49:59;22.11;47.02
66722;SHT31;53633;49.932;10.884;2023-05-02T09:52:27;21.12;48.46
66722;SHT31;53633;49.932;10.884;2023-05-02T09:54:54;20.59;48.80
66722;SHT31;53633;49.932;10.884;2023-05-02T09:57:21;20.11;51.03
66722;SHT31;53633;49.932;10.884;2023-05-02T09:59:54;19.70;51.53
66722;SHT31;53633;49.932;10.884;2023-05-02T10:02:22;19.61;52.91
66722;SHT31;53633;49.932;10.884;2023-05-02T10:04:50;19.22;53.99
66722;SHT31;53633;49.932;10.884;2023-05-02T10:07:19;18.71;55.36
66722;SHT31;53633;49.932;10.884;2023-05-02T10:09:48;18.68;55.71
66722;SHT31;53633;49.932;10.884;2023-05-02T10:12:17;18.60;55.97
66722;SHT31;53633;49.932;10.884;2023-05-02T10:14:49;18.36;58.58
66722;SHT31;53633;49.932;10.884;2023-05-02T10:17:23;18.17;59.37
66722;SHT31;53633;49.932;10.884;2023-05-02T10:19:55;18.14;61.12
66722;SHT31;53633;49.932;10.884;2023-05-02T10:22:23;17.78;62.24
66722;SHT31;53633;49.932;10.884;2023-05-02T10:24:51;17.23;65.27
66722;SHT31;53633;49.932;10.884;2023-05-02T10:27:18;16.52;65.70
66722;SHT31;53633;49.932;10.884;2023-05-02T10:29:45;16.62;64.54
66722;SHT31;53633;49.932;10.884;2023-05-02T10:32:12;16.78;66.64
66722;SHT31;53633;49.932;10.884;2023-05-02T10:34:40;16.79;68.74
66722;SHT31;53633;49.932;10.884;2023-05-02T10:37:07;16.65;71.43
66722;SHT31;53633;49.932;10.884;2023-05-02T10:39:34;16.49;71.67
66722;SHT31;53633;49.932;10.884;2023-05-02T10:42:02;16.34;73.75
66722;SHT31;53633;49.932;10.884;2023-05-02T10:44:33;16.24;72.61
66722;SHT31;53633;49.932;10.884;2023-05-02T10:47:00;16.45;72.64
66722;SHT31;53633;49.932;10.884;2023-05-02T10:49:27;16.59;72.69
66722;SHT31;53633;49.932;10.884;2023-05-02T10:51:54;16.65;71.59
66722;SHT31;53633;49.932;10.884;2023-05-02T10:54:21;16.95;71.58
66722;SHT31;53633;49.932;10.884;2023-05-02T10:57:05;17.10;70.55
66722;SHT31;53633;49.932;10.884;2023-05-02T10:59:34;16.89;75.58
66722;SHT31;53633;49.932;10.884;2023-05-02T11:02:01;17.55;71.93
66722;SHT31;53633;49.932;10.884;2023-05-02T11:04:58;17.86;68.75
66722;SHT31;53633;49.932;10.884;2023-05-02T11:07:26;17.85;67.70
66722;SHT31;53633;49.932;10.884;2023-05-02T11:09:53;16.87;68.36
66722;SHT31;53633;49.932;10.884;2023-05-02T11:12:45;17.19;68.05
66722;SHT31;53633;49.932;10.884;2023-05-02T11:15:12;17.47;66.51
66722;SHT31;53633;49.932;10.884;2023-05-02T11:17:57;17.78;66.61
66722;SHT31;53633;49.932;10.884;2023-05-02T11:20:25;18.07;64.67
66722;SHT31;53633;49.932;10.884;2023-05-02T11:22:55;18.29;65.10
66722;SHT31;53633;49.932;10.884;2023-05-02T11:25:32;18.41;64.02
66722;SHT31;53633;49.932;10.884;2023-05-02T11:28:01;18.75;63.81
66722;SHT31;53633;49.932;10.884;2023-05-02T11:30:38;18.63;64.33
66722;SHT31;53633;49.932;10.884;2023-05-02T11:33:16;18.58;64.72
66722;SHT31;53633;49.932;10.884;2023-05-02T11:35:43;18.43;65.55
66722;SHT31;53633;49.932;10.884;2023-05-02T11:38:12;18.36;64.64
66722;SHT31;53633;49.932;10.884;2023-05-02T11:40:39;18.09;65.64
66722;SHT31;53633;49.932;10.884;2023-05-02T11:43:14;17.72;67.56
66722;SHT31;53633;49.932;10.884;2023-05-02T11:45:41;17.35;70.59
66722;SHT31;53633;49.932;10.884;2023-05-02T11:48:10;17.10;72.66
66722;SHT31;53633;49.932;10.884;2023-05-02T11:50:41;16.95;71.27
66722;SHT31;53633;49.932;10.884;2023-05-02T11:53:17;16.85;70.55
66722;SHT31;53633;49.932;10.884;2023-05-02T11:55:44;16.80;71.69
66722;SHT31;53633;49.932;10.884;2023-05-02T11:58:13;16.48;72.86
66722;SHT31;53633;49.932;10.884;2023-05-02T12:00:41;16.31;73.35
66722;SHT31;53633;49.932;10.884;2023-05-02T12:03:08;16.10;75.14
66722;SHT31;53633;49.932;10.884;2023-05-02T12:05:35;15.87;75.89
66722;SHT31;53633;49.932;10.884;2023-05-02T12:08:01;15.63;77.13
66722;SHT31;53633;49.932;10.884;2023-05-02T12:10:34;15.35;79.26
66722;SHT31;53633;49.932;10.884;2023-05-02T12:13:03;15.21;81.22
66722;SHT31;53633;49.932;10.884;2023-05-02T12:15:31;14.86;81.03
66722;SHT31;53633;49.932;10.884;2023-05-02T12:17:58;14.60;80.50
66722;SHT31;53633;49.932;10.884;2023-05-02T12:20:25;14.36;81.34
66722;SHT31;53633;49.932;10.884;2023-05-02T12:22:52;14.35;79.28
66722;SHT31;53633;49.932;10.884;2023-05-02T12:25:19;14.18;80.76
66722;SHT31;53633;49.932;10.884;2023-05-02T12:27:58;13.95;80.22
66722;SHT31;53633;49.932;10.884;2023-05-02T12:30:25;13.66;79.55
66722;SHT31;53633;49.932;10.884;2023-05-02T12:32:56;13.34;82.72
66722;SHT31;53633;49.932;10.884;2023-05-02T12:35:23;12.76;86.20
66722;SHT31;53633;49.932;10.884;2023-05-02T12:37:51;13.16;83.39
66722;SHT31;53633;49.932;10.884;2023-05-02T12:40:19;13.39;84.33
66722;SHT31;53633;49.932;10.884;2023-05-02T12:42:57;13.77;83.48
66722;SHT31;53633;49.932;10.884;2023-05-02T12:45:24;14.34;83.08
66722;SHT31;53633;49.932;10.884;2023-05-02T12:47:51;14.81;79.17
66722;SHT31;53633;49.932;10.884;2023-05-02T12:50:19;14.41;80.36
66722;SHT31;53633;49.932;10.884;2023-05-02T12:52:47;14.46;79.56
66722;SHT31;53633;49.932;10.884;2023-05-02T12:55:14;14.81;83.18
66722;SHT31;53633;49.932;10.884;2023-05-02T12:57:42;15.10;80.35
66722;SHT31;53633;49.932;10.884;2023-05-02T13:00:09;15.73;77.88
66722;SHT31;53633;49.932;10.884;2023-05-02T13:02:36;15.87;77.86
66722;SHT31;53633;49.932;10.884;2023-05-02T13:05:12;15.70;75.45
66722;SHT31;53633;49.932;10.884;2023-05-02T13:07:41;15.73;75.09
66722;SHT31;53633;49.932;10.884;2023-05-02T13:10:08;15.83;76.27
66722;SHT31;53633;49.932;10.884;2023-05-02T13:12:35;16.07;74.17
66722;SHT31;53633;49.932;10.884;2023-05-02T13:15:02;15.93;74.36
66722;SHT31;53633;49.932;10.884;2023-05-02T13:17:28;15.73;73.99
66722;SHT31;53633;49.932;10.884;2023-05-02T13:19:55;15.70;73.31
66722;SHT31;53633;49.932;10.884;2023-05-02T13:22:27;15.65;74.78
66722;SHT31;53633;49.932;10.884;2023-05-02T13:24:55;15.56;72.98
66722;SHT31;53633;49.932;10.884;2023-05-02T13:27:22;15.54;72.44
66722;SHT31;53633;49.932;10.884;2023-05-02T13:29:49;15.51;71.88
66722;SHT31;53633;49.932;10.884;2023-05-02T13:32:16;15.65;71.82
66722;SHT31;53633;49.932;10.884;2023-05-02T13:34:43;15.44;70.15
66722;SHT31;53633;49.932;10.884;2023-05-02T13:37:10;15.49;71.11
66722;SHT31;53633;49.932;10.884;2023-05-02T13:39:37;15.44;71.02
66722;SHT31;53633;49.932;10.884;2023-05-02T13:42:05;15.67;71.29
66722;SHT31;53633;49.932;10.884;2023-05-02T13:44:32;15.89;70.20
66722;SHT31;53633;49.932;10.884;2023-05-02T13:46:59;16.03;68.76
66722;SHT31;53633;49.932;10.884;2023-05-02T13:49:25;15.83;69.06
66722;SHT31;53633;49.932;10.884;2023-05-02T13:51:52;15.96;69.06
66722;SHT31;53633;49.932;10.884;2023-05-02T13:54:19;15.99;68.16
66722;SHT31;53633;49.932;10.884;2023-05-02T13:56:45;16.20;66.96
66722;SHT31;53633;49.932;10.884;2023-05-02T13:59:13;16.06;66.26
66722;SHT31;53633;49.932;10.884;2023-05-02T14:01:40;16.04;66.18
66722;SHT31;53633;49.932;10.884;2023-05-02T14:04:06;15.99;65.96
66722;SHT31;53633;49.932;10.884;2023-05-02T14:06:33;16.09;64.55
66722;SHT31;53633;49.932;10.884;2023-05-02T14:09:00;16.11;65.48
66722;SHT31;53633;49.932;10.884;2023-05-02T14:11:27;16.06;67.35
66722;SHT31;53633;49.932;10.884;2023-05-02T14:13:54;15.97;67.93
66722;SHT31;53633;49.932;10.884;2023-05-02T14:16:21;16.04;65.94
66722;SHT31;53633;49.932;10.884;2023-05-02T14:18:48;16.24;66.72
66722;SHT31;53633;49.932;10.884;2023-05-02T14:21:15;16.38;65.39
66722;SHT31;53633;49.932;10.884;2023-05-02T14:23:42;16.38;63.60
66722;SHT31;53633;49.932;10.884;2023-05-02T14:26:09;16.48;64.70
66722;SHT31;53633;49.932;10.884;2023-05-02T14:28:35;16.69;63.88
66722;SHT31;53633;49.932;10.884;2023-05-02T14:31:04;16.79;67.18
66722;SHT31;53633;49.932;10.884;2023-05-02T14:33:32;17.03;64.68
66722;SHT31;53633;49.932;10.884;2023-05-02T14:35:59;17.20;66.86
66722;SHT31;53633;49.932;10.884;2023-05-02T14:38:26;17.17;64.79
66722;SHT31;53633;49.932;10.884;2023-05-02T14:40:53;17.20;63.85
66722;SHT31;53633;49.932;10.884;2023-05-02T14:43:19;17.24;65.14
66722;SHT31;53633;49.932;10.884;2023-05-02T14:45:46;17.22;66.03
66722;SHT31;53633;49.932;10.884;2023-05-02T14:48:13;17.24;62.39
66722;SHT31;53633;49.932;10.884;2023-05-02T14:50:41;16.97;61.57
66722;SHT31;53633;49.932;10.884;2023-05-02T14:53:07;16.90;62.65
66722;SHT31;53633;49.932;10.884;2023-05-02T14:55:37;17.02;63.57
66722;SHT31;53633;49.932;10.884;2023-05-02T14:58:04;17.13;63.64
66722;SHT31;53633;49.932;10.884;2023-05-02T15:00:32;17.12;62.90
66722;SHT31;53633;49.932;10.884;2023-05-02T15:02:59;17.10;60.18
66722;SHT31;53633;49.932;10.884;2023-05-02T15:05:26;16.73;63.63
66722;SHT31;53633;49.932;10.884;2023-05-02T15:07:54;16.66;70.56
66722;SHT31;53633;49.932;10.884;2023-05-02T15:10:21;16.83;67.39
66722;SHT31;53633;49.932;10.884;2023-05-02T15:12:48;17.19;70.15
66722;SHT31;53633;49.932;10.884;2023-05-02T15:15:14;17.34;71.02
66722;SHT31;53633;49.932;10.884;2023-05-02T15:17:41;17.47;67.52
66722;SHT31;53633;49.932;10.884;2023-05-02T15:20:09;17.55;66.83
66722;SHT31;53633;49.932;10.884;2023-05-02T15:22:36;17.41;69.73
66722;SHT31;53633;49.932;10.884;2023-05-02T15:25:05;17.47;65.00
66722;SHT31;53633;49.932;10.884;2023-05-02T15:27:32;17.34;67.33
66722;SHT31;53633;49.932;10.884;2023-05-02T15:29:58;17.35;65.62
66722;SHT31;53633;49.932;10.884;2023-05-02T15:32:25;17.35;65.57